createdAt,value
2023-06-30T00:00:34.545Z,2807.00
2023-06-30T00:01:34.615Z,2824.00
2023-06-30T00:02:34.642Z,2838.00
2023-06-30T00:03:34.740Z,2835.00
2023-06-30T00:04:34.669Z,2836.00
2023-06-30T00:05:34.628Z,2834.00
2023-06-30T00:06:34.627Z,2837.00
2023-06-30T00:07:34.732Z,2823.00
2023-06-30T00:08:34.668Z,2821.00
2023-06-30T00:09:34.704Z,2819.00
2023-06-30T00:10:34.703Z,2809.00
2023-06-30T00:11:34.734Z,2802.00
2023-06-30T00:12:34.857Z,2819.00
2023-06-30T00:13:34.789Z,2822.00
2023-06-30T00:14:34.783Z,2822.00
2023-06-30T00:15:34.849Z,2828.00
2023-06-30T00:16:34.901Z,2830.00
2023-06-30T00:17:34.847Z,2836.00
2023-06-30T00:18:34.857Z,2848.00
2023-06-30T00:19:34.862Z,2848.00
2023-06-30T00:20:35.073Z,2852.00
2023-06-30T00:21:34.893Z,2849.00
2023-06-30T00:22:34.938Z,2859.00
2023-06-30T00:23:34.947Z,2887.00
2023-06-30T00:24:34.974Z,2876.00
2023-06-30T00:25:34.979Z,2884.00
2023-06-30T00:26:35.002Z,2904.00
2023-06-30T00:27:35.010Z,2903.00
2023-06-30T00:28:35.064Z,2915.00
2023-06-30T00:29:35.068Z,2933.00
2023-06-30T00:30:35.070Z,2942.00
2023-06-30T00:31:35.196Z,2949.00
2023-06-30T00:32:35.140Z,2960.00
2023-06-30T00:33:35.129Z,2945.00
2023-06-30T00:34:35.149Z,2964.00
2023-06-30T00:35:35.162Z,2980.00
2023-06-30T00:36:35.203Z,2991.00
2023-06-30T00:37:35.206Z,2987.00
2023-06-30T00:38:35.281Z,3011.00
2023-06-30T00:39:35.272Z,3012.00
2023-06-30T00:40:35.281Z,3016.00
2023-06-30T00:41:35.293Z,3017.00
2023-06-30T00:42:35.317Z,3013.00
2023-06-30T00:43:35.334Z,3028.00
2023-06-30T00:44:35.337Z,3030.00
2023-06-30T00:45:35.371Z,3022.00
2023-06-30T00:46:35.419Z,3032.00
2023-06-30T00:47:35.413Z,3012.00
2023-06-30T00:48:35.409Z,3029.00
2023-06-30T00:49:35.429Z,3040.00
2023-06-30T00:50:35.446Z,3025.00
2023-06-30T00:51:35.473Z,3040.00
2023-06-30T00:52:35.478Z,3046.00
2023-06-30T00:53:35.513Z,3061.00
2023-06-30T00:54:35.529Z,3066.00
2023-06-30T00:55:35.539Z,3047.00
2023-06-30T00:56:35.584Z,3051.00
2023-06-30T00:57:35.593Z,3064.00
2023-06-30T00:58:35.598Z,3071.00
2023-06-30T00:59:35.661Z,3063.00
2023-06-30T01:00:35.656Z,3075.00
2023-06-30T01:01:35.694Z,3066.00
2023-06-30T01:02:35.740Z,3058.00
2023-06-30T01:03:35.772Z,3065.00
2023-06-30T01:04:35.775Z,3044.00
2023-06-30T01:05:35.745Z,3047.00
2023-06-30T01:06:35.777Z,3027.00
2023-06-30T01:07:35.834Z,3041.00
2023-06-30T01:08:35.825Z,3034.00
2023-06-30T01:09:35.852Z,3025.00
2023-06-30T01:10:35.880Z,3023.00
2023-06-30T01:11:35.890Z,3032.00
2023-06-30T01:12:35.961Z,3034.00
2023-06-30T01:13:35.947Z,3023.00
2023-06-30T01:14:35.972Z,3036.00
2023-06-30T01:15:36.009Z,3044.00
2023-06-30T01:16:36.087Z,3059.00
2023-06-30T01:17:36.056Z,3044.00
2023-06-30T01:18:36.066Z,3046.00
2023-06-30T01:19:36.109Z,3050.00
2023-06-30T01:20:36.118Z,3055.00
2023-06-30T01:21:36.150Z,3057.00
2023-06-30T01:22:36.152Z,3073.00
2023-06-30T01:23:36.192Z,3064.00
2023-06-30T01:24:36.231Z,3071.00
2023-06-30T01:25:36.287Z,3071.00
2023-06-30T01:26:36.261Z,3079.00
2023-06-30T01:27:36.302Z,3097.00
2023-06-30T01:28:36.381Z,3094.00
2023-06-30T01:29:36.348Z,3063.00
2023-06-30T01:30:36.384Z,3076.00
2023-06-30T01:31:36.411Z,3078.00
2023-06-30T01:32:36.449Z,3074.00
2023-06-30T01:33:36.478Z,3075.00
2023-06-30T01:34:36.482Z,3064.00
2023-06-30T01:35:36.551Z,3053.00
2023-06-30T01:36:36.534Z,3066.00
2023-06-30T01:37:36.587Z,3055.00
2023-06-30T01:38:36.592Z,3062.00
2023-06-30T01:39:36.627Z,3059.00
2023-06-30T01:40:36.654Z,3064.00
2023-06-30T01:41:36.696Z,3064.00
2023-06-30T01:42:36.714Z,3052.00
2023-06-30T01:43:36.751Z,3062.00
2023-06-30T01:44:36.803Z,3061.00
2023-06-30T01:45:36.837Z,3066.00
2023-06-30T01:46:36.917Z,3064.00
2023-06-30T01:47:36.917Z,3063.00
2023-06-30T01:48:36.923Z,3062.00
2023-06-30T01:49:36.964Z,3070.00
2023-06-30T01:50:36.979Z,3067.00
2023-06-30T01:51:37.044Z,3074.00
2023-06-30T01:52:37.071Z,3067.00
2023-06-30T01:53:37.071Z,3066.00
2023-06-30T01:54:37.103Z,3065.00
2023-06-30T01:55:37.171Z,3091.00
2023-06-30T01:56:37.186Z,3072.00
2023-06-30T01:57:37.183Z,3083.00
2023-06-30T01:58:37.241Z,3065.00
2023-06-30T01:59:37.274Z,3071.00
2023-06-30T02:00:37.272Z,3071.00
2023-06-30T02:01:37.395Z,3079.00
2023-06-30T02:02:37.410Z,3066.00
2023-06-30T02:03:37.398Z,3068.00
2023-06-30T02:04:37.420Z,3061.00
2023-06-30T02:05:37.438Z,3058.00
2023-06-30T02:06:37.486Z,3049.00
2023-06-30T02:07:37.566Z,3045.00
2023-06-30T02:08:37.550Z,3059.00
2023-06-30T02:09:48.147Z,3062.00
2023-06-30T02:10:38.563Z,3062.00
2023-06-30T02:11:37.573Z,3051.00
2023-06-30T02:12:37.569Z,3055.00
2023-06-30T02:13:37.532Z,3061.00
2023-06-30T02:14:37.553Z,3056.00
2023-06-30T02:15:37.568Z,3060.00
2023-06-30T02:16:37.591Z,3075.00
2023-06-30T02:17:37.543Z,3067.00
2023-06-30T02:18:37.497Z,3081.00
2023-06-30T02:19:37.499Z,3081.00
2023-06-30T02:20:37.504Z,3070.00
2023-06-30T02:21:37.491Z,3084.00
2023-06-30T02:22:37.501Z,3084.00
2023-06-30T02:23:37.477Z,3090.00
2023-06-30T02:24:37.447Z,3110.00
2023-06-30T02:25:37.445Z,3095.00
2023-06-30T02:26:37.470Z,3118.00
2023-06-30T02:27:37.533Z,3105.00
2023-06-30T02:28:37.561Z,3106.00
2023-06-30T02:29:37.592Z,3119.00
2023-06-30T02:30:37.608Z,3122.00
2023-06-30T02:31:37.672Z,3119.00
2023-06-30T02:32:37.717Z,3114.00
2023-06-30T02:33:37.730Z,3119.00
2023-06-30T02:34:37.778Z,3111.00
2023-06-30T02:35:37.846Z,3114.00
2023-06-30T02:36:37.829Z,3134.00
2023-06-30T02:37:37.869Z,3130.00
2023-06-30T02:38:37.874Z,3140.00
2023-06-30T02:39:37.917Z,3126.00
2023-06-30T02:40:37.971Z,3132.00
2023-06-30T02:41:38.006Z,3122.00
2023-06-30T02:42:38.032Z,3121.00
2023-06-30T02:43:38.056Z,3125.00
2023-06-30T02:44:38.115Z,3121.00
2023-06-30T02:45:38.177Z,3131.00
2023-06-30T02:46:38.187Z,3121.00
2023-06-30T02:47:38.244Z,3115.00
2023-06-30T02:48:38.243Z,3138.00
2023-06-30T02:49:38.280Z,3133.00
2023-06-30T02:50:38.328Z,3126.00
2023-06-30T02:51:38.351Z,3149.00
2023-06-30T02:52:38.388Z,3154.00
2023-06-30T02:53:38.446Z,3165.00
2023-06-30T02:54:38.459Z,3154.00
2023-06-30T02:55:39.371Z,3169.00
2023-06-30T02:56:38.538Z,3164.00
2023-06-30T02:57:38.631Z,3161.00
2023-06-30T02:58:38.657Z,3172.00
2023-06-30T02:59:38.650Z,3175.00
2023-06-30T03:00:38.714Z,3153.00
2023-06-30T03:01:38.837Z,3151.00
2023-06-30T03:02:39.014Z,3166.00
2023-06-30T03:03:38.871Z,3153.00
2023-06-30T03:04:38.852Z,3158.00
2023-06-30T03:05:38.899Z,3163.00
2023-06-30T03:06:38.938Z,3157.00
2023-06-30T03:07:39.010Z,3162.00
2023-06-30T03:08:39.013Z,3154.00
2023-06-30T03:09:39.037Z,3151.00
2023-06-30T03:10:39.092Z,3151.00
2023-06-30T03:11:39.132Z,3141.00
2023-06-30T03:12:39.152Z,3150.00
2023-06-30T03:13:39.217Z,3133.00
2023-06-30T03:14:39.230Z,3146.00
2023-06-30T03:15:39.253Z,3140.00
2023-06-30T03:16:39.324Z,3131.00
2023-06-30T03:17:39.369Z,3135.00
2023-06-30T03:18:39.366Z,3143.00
2023-06-30T03:19:39.383Z,3141.00
2023-06-30T03:20:39.448Z,3131.00
2023-06-30T03:21:39.464Z,3130.00
2023-06-30T03:22:39.492Z,3144.00
2023-06-30T03:23:39.522Z,3135.00
2023-06-30T03:24:39.543Z,3134.00
2023-06-30T03:25:39.594Z,3130.00
2023-06-30T03:26:39.656Z,3139.00
2023-06-30T03:27:39.670Z,3140.00
2023-06-30T03:28:39.681Z,3140.00
2023-06-30T03:29:39.718Z,3131.00
2023-06-30T03:30:39.808Z,3138.00
2023-06-30T03:31:39.816Z,3138.00
2023-06-30T03:32:39.919Z,3125.00
2023-06-30T03:33:39.849Z,3144.00
2023-06-30T03:34:39.927Z,3143.00
2023-06-30T03:35:39.932Z,3144.00
2023-06-30T03:36:39.971Z,3142.00
2023-06-30T03:37:40.019Z,3125.00
2023-06-30T03:38:40.016Z,3141.00
2023-06-30T03:39:40.066Z,3137.00
2023-06-30T03:40:40.131Z,3143.00
2023-06-30T03:41:40.129Z,3142.00
2023-06-30T03:42:40.171Z,3141.00
2023-06-30T03:43:40.202Z,3131.00
2023-06-30T03:44:40.260Z,3126.00
2023-06-30T03:45:40.276Z,3128.00
2023-06-30T03:46:40.318Z,3140.00
2023-06-30T03:47:40.352Z,3130.00
2023-06-30T03:48:40.364Z,3135.00
2023-06-30T03:49:40.412Z,3130.00
2023-06-30T03:50:40.446Z,3125.00
2023-06-30T03:51:40.490Z,3132.00
2023-06-30T03:52:40.528Z,3118.00
2023-06-30T03:53:40.571Z,3125.00
2023-06-30T03:54:40.608Z,3117.00
2023-06-30T03:55:40.652Z,3105.00
2023-06-30T03:56:40.686Z,3103.00
2023-06-30T03:57:40.714Z,3096.00
2023-06-30T03:58:40.763Z,3099.00
2023-06-30T03:59:40.830Z,3091.00
2023-06-30T04:00:40.869Z,3097.00
2023-06-30T04:01:40.892Z,3097.00
2023-06-30T04:02:41.151Z,3080.00
2023-06-30T04:03:41.131Z,3094.00
2023-06-30T04:04:41.067Z,3085.00
2023-06-30T04:05:41.039Z,3094.00
2023-06-30T04:06:41.076Z,3085.00
2023-06-30T04:07:41.163Z,3093.00
2023-06-30T04:08:41.164Z,3084.00
2023-06-30T04:09:41.204Z,3092.00
2023-06-30T04:10:41.227Z,3080.00
2023-06-30T04:11:41.272Z,3079.00
2023-06-30T04:12:41.329Z,3069.00
2023-06-30T04:13:41.343Z,3081.00
2023-06-30T04:14:41.386Z,3075.00
2023-06-30T04:15:41.418Z,3073.00
2023-06-30T04:16:41.505Z,3067.00
2023-06-30T04:17:41.561Z,3057.00
2023-06-30T04:18:41.548Z,3068.00
2023-06-30T04:19:41.595Z,3059.00
2023-06-30T04:20:41.637Z,3054.00
2023-06-30T04:21:41.659Z,3060.00
2023-06-30T04:22:41.714Z,3064.00
2023-06-30T04:23:41.753Z,3045.00
2023-06-30T04:24:41.802Z,3050.00
2023-06-30T04:25:41.851Z,3030.00
2023-06-30T04:26:41.882Z,3036.00
2023-06-30T04:27:41.908Z,3027.00
2023-06-30T04:28:41.966Z,3032.00
2023-06-30T04:29:41.997Z,3020.00
2023-06-30T04:30:42.029Z,3015.00
2023-06-30T04:31:42.121Z,3019.00
2023-06-30T04:32:42.147Z,3014.00
2023-06-30T04:33:42.172Z,3009.00
2023-06-30T04:34:42.193Z,3020.00
2023-06-30T04:35:42.363Z,3014.00
2023-06-30T04:36:42.293Z,3006.00
2023-06-30T04:37:42.343Z,3003.00
2023-06-30T04:38:42.431Z,3005.00
2023-06-30T04:39:42.430Z,3013.00
2023-06-30T04:40:42.479Z,3013.00
2023-06-30T04:41:42.518Z,3019.00
2023-06-30T04:42:42.539Z,3020.00
2023-06-30T04:43:42.581Z,3009.00
2023-06-30T04:44:42.636Z,3010.00
2023-06-30T04:45:42.927Z,3010.00
2023-06-30T04:46:42.820Z,2996.00
2023-06-30T04:47:42.792Z,2990.00
2023-06-30T04:48:42.811Z,2998.00
2023-06-30T04:49:42.847Z,2984.00
2023-06-30T04:50:42.932Z,2964.00
2023-06-30T04:51:42.939Z,2981.00
2023-06-30T04:52:43.005Z,2985.00
2023-06-30T04:53:43.037Z,2974.00
2023-06-30T04:54:43.068Z,2968.00
2023-06-30T04:55:43.277Z,2963.00
2023-06-30T04:56:43.157Z,2971.00
2023-06-30T04:57:43.203Z,2955.00
2023-06-30T04:58:43.237Z,2954.00
2023-06-30T04:59:43.307Z,2935.00
2023-06-30T05:00:43.315Z,2960.00
2023-06-30T05:01:43.380Z,2974.00
2023-06-30T05:02:43.432Z,2954.00
2023-06-30T05:03:43.497Z,2951.00
2023-06-30T05:04:43.482Z,2953.00
2023-06-30T05:05:43.828Z,2944.00
2023-06-30T05:06:43.593Z,2937.00
2023-06-30T05:07:43.671Z,2929.00
2023-06-30T05:08:43.652Z,2920.00
2023-06-30T05:09:43.706Z,2934.00
2023-06-30T05:10:43.752Z,2910.00
2023-06-30T05:11:43.785Z,2890.00
2023-06-30T05:12:43.851Z,2763.00
2023-06-30T05:13:43.890Z,2689.00
2023-06-30T05:14:43.937Z,2605.00
2023-06-30T05:15:44.273Z,2565.00
2023-06-30T05:16:43.988Z,2544.00
2023-06-30T05:17:44.033Z,2557.00
2023-06-30T05:18:44.020Z,2573.00
2023-06-30T05:19:44.074Z,2575.00
2023-06-30T05:20:44.183Z,2570.00
2023-06-30T05:21:44.171Z,2563.00
2023-06-30T05:22:44.245Z,2555.00
2023-06-30T05:23:44.327Z,2548.00
2023-06-30T05:24:44.280Z,2574.00
2023-06-30T05:25:44.534Z,2574.00
2023-06-30T05:26:44.433Z,2571.00
2023-06-30T05:27:44.523Z,2572.00
2023-06-30T05:28:52.711Z,2558.00
2023-06-30T05:29:45.508Z,2560.00
2023-06-30T05:30:44.516Z,2567.00
2023-06-30T05:31:44.542Z,2594.00
2023-06-30T05:32:44.534Z,2658.00
2023-06-30T05:33:44.511Z,2724.00
2023-06-30T05:34:44.551Z,2725.00
2023-06-30T05:35:44.699Z,2687.00
2023-06-30T05:36:44.488Z,2708.00
2023-06-30T05:37:44.466Z,2857.00
2023-06-30T05:38:44.520Z,2925.00
2023-06-30T05:39:44.433Z,3022.00
2023-06-30T05:40:44.429Z,3018.00
2023-06-30T05:41:44.447Z,3031.00
2023-06-30T05:42:44.497Z,3088.00
2023-06-30T05:43:44.537Z,3048.00
2023-06-30T05:44:45.493Z,3044.00
2023-06-30T05:45:44.752Z,3103.00
2023-06-30T05:46:44.603Z,3143.00
2023-06-30T05:47:44.597Z,3077.00
2023-06-30T05:48:44.627Z,2959.00
2023-06-30T05:49:44.597Z,2924.00
2023-06-30T05:50:44.623Z,2917.00
2023-06-30T05:51:44.624Z,2880.00
2023-06-30T05:52:44.630Z,2874.00
2023-06-30T05:53:44.635Z,2900.00
2023-06-30T05:54:44.688Z,2917.00
2023-06-30T05:55:44.847Z,2920.00
2023-06-30T05:56:44.674Z,2884.00
2023-06-30T05:57:44.701Z,2879.00
2023-06-30T05:58:44.726Z,2873.00
2023-06-30T05:59:44.743Z,2882.00
2023-06-30T06:00:44.760Z,2916.00
2023-06-30T06:01:44.775Z,2925.00
2023-06-30T06:02:44.888Z,2887.00
2023-06-30T06:03:45.078Z,2896.00
2023-06-30T06:04:44.998Z,2926.00
2023-06-30T06:05:45.164Z,2943.00
2023-06-30T06:06:44.877Z,2911.00
2023-06-30T06:07:45.054Z,2899.00
2023-06-30T06:08:44.920Z,2848.00
2023-06-30T06:09:44.943Z,2858.00
2023-06-30T06:10:45.000Z,2885.00
2023-06-30T06:11:44.975Z,2882.00
2023-06-30T06:12:45.020Z,2909.00
2023-06-30T06:13:45.003Z,2888.00
2023-06-30T06:14:45.010Z,2858.00
2023-06-30T06:15:45.192Z,2886.00
2023-06-30T06:16:45.099Z,2881.00
2023-06-30T06:17:45.128Z,2839.00
2023-06-30T06:18:46.550Z,2847.00
2023-06-30T06:19:45.132Z,2837.00
2023-06-30T06:20:45.126Z,2835.00
2023-06-30T06:21:45.106Z,2834.00
2023-06-30T06:22:45.097Z,2819.00
2023-06-30T06:23:45.083Z,2862.00
2023-06-30T06:24:45.104Z,2885.00
2023-06-30T06:25:45.612Z,2910.00
2023-06-30T06:26:45.098Z,2956.00
2023-06-30T06:27:45.061Z,2957.00
2023-06-30T06:28:45.058Z,2964.00
2023-06-30T06:29:45.050Z,2912.00
2023-06-30T06:30:45.523Z,2930.00
2023-06-30T06:31:45.050Z,2896.00
2023-06-30T06:32:45.108Z,2846.00
2023-06-30T06:33:45.008Z,2785.00
2023-06-30T06:34:45.006Z,2733.00
2023-06-30T06:35:45.219Z,2701.00
2023-06-30T06:36:45.010Z,2660.00
2023-06-30T06:37:45.010Z,2566.00
2023-06-30T06:38:44.988Z,2578.00
2023-06-30T06:39:44.975Z,2619.00
2023-06-30T06:40:44.973Z,2680.00
2023-06-30T06:41:44.959Z,2740.00
2023-06-30T06:42:44.973Z,2747.00
2023-06-30T06:43:44.988Z,2735.00
2023-06-30T06:44:44.952Z,2692.00
2023-06-30T06:45:45.260Z,2670.00
2023-06-30T06:46:45.086Z,2674.00
2023-06-30T06:47:45.019Z,2641.00
2023-06-30T06:48:44.967Z,2647.00
2023-06-30T06:49:47.006Z,2681.00
2023-06-30T06:50:44.995Z,2704.00
2023-06-30T06:51:44.930Z,2757.00
2023-06-30T06:52:44.892Z,2736.00
2023-06-30T06:53:44.885Z,2711.00
2023-06-30T06:54:44.895Z,2715.00
2023-06-30T06:55:45.316Z,2742.00
2023-06-30T06:56:44.859Z,2704.00
2023-06-30T06:57:44.871Z,2674.00
2023-06-30T06:58:44.877Z,2653.00
2023-06-30T06:59:44.908Z,2587.00
2023-06-30T07:00:44.943Z,2573.00
2023-06-30T07:01:44.993Z,2562.00
2023-06-30T07:02:45.050Z,2560.00
2023-06-30T07:03:45.080Z,2563.00
2023-06-30T07:04:45.128Z,2527.00
2023-06-30T07:05:45.550Z,2518.00
2023-06-30T07:06:45.219Z,2550.00
2023-06-30T07:07:45.353Z,2530.00
2023-06-30T07:08:45.333Z,2514.00
2023-06-30T07:09:45.416Z,2508.00
2023-06-30T07:10:45.457Z,2501.00
2023-06-30T07:11:45.502Z,2512.00
2023-06-30T07:12:45.569Z,2489.00
2023-06-30T07:13:45.648Z,2521.00
2023-06-30T07:14:47.934Z,2483.00
2023-06-30T07:15:45.915Z,2522.00
2023-06-30T07:16:45.727Z,2516.00
2023-06-30T07:17:45.767Z,2509.00
2023-06-30T07:18:45.764Z,2502.00
2023-06-30T07:19:45.662Z,2516.00
2023-06-30T07:20:45.653Z,2596.00
2023-06-30T07:21:45.640Z,2637.00
2023-06-30T07:22:45.618Z,2601.00
2023-06-30T07:23:45.632Z,2543.00
2023-06-30T07:24:45.647Z,2448.00
2023-06-30T07:25:45.944Z,2446.00
2023-06-30T07:26:45.618Z,2433.00
2023-06-30T07:27:45.757Z,2410.00
2023-06-30T07:28:45.620Z,2350.00
2023-06-30T07:29:45.650Z,2358.00
2023-06-30T07:30:45.596Z,2355.00
2023-06-30T07:31:45.668Z,2319.00
2023-06-30T07:32:45.614Z,2280.00
2023-06-30T07:33:45.574Z,2289.00
2023-06-30T07:34:45.578Z,2227.00
2023-06-30T07:35:45.965Z,2171.00
2023-06-30T07:36:45.559Z,2195.00
2023-06-30T07:37:45.556Z,2257.00
2023-06-30T07:38:45.525Z,2329.00
2023-06-30T07:39:45.513Z,2347.00
2023-06-30T07:40:55.930Z,2337.00
2023-06-30T07:41:46.545Z,2340.00
2023-06-30T07:42:45.534Z,2346.00
2023-06-30T07:43:45.492Z,2366.00
2023-06-30T07:44:45.521Z,2399.00
2023-06-30T07:45:45.726Z,2416.00
2023-06-30T07:46:45.485Z,2453.00
2023-06-30T07:47:45.598Z,2486.00
2023-06-30T07:48:45.619Z,2496.00
2023-06-30T07:49:45.484Z,2517.00
2023-06-30T07:50:58.810Z,2462.00
2023-06-30T07:51:46.550Z,2427.00
2023-06-30T07:52:45.538Z,2376.00
2023-06-30T07:53:45.565Z,2347.00
2023-06-30T07:54:45.538Z,2390.00
2023-06-30T07:55:46.148Z,2378.00
2023-06-30T07:56:45.529Z,2381.00
2023-06-30T07:57:45.687Z,2410.00
2023-06-30T07:58:45.500Z,2445.00
2023-06-30T07:59:45.539Z,2468.00
2023-06-30T08:00:45.485Z,2476.00
2023-06-30T08:01:45.477Z,2448.00
2023-06-30T08:02:45.540Z,2435.00
2023-06-30T08:03:45.682Z,2403.00
2023-06-30T08:04:45.585Z,2330.00
2023-06-30T08:05:46.114Z,2335.00
2023-06-30T08:06:45.494Z,2279.00
2023-06-30T08:07:49.266Z,2315.00
2023-06-30T08:08:46.488Z,2311.00
2023-06-30T08:09:45.500Z,2316.00
2023-06-30T08:10:45.505Z,2262.00
2023-06-30T08:11:45.474Z,2292.00
2023-06-30T08:12:45.470Z,2256.00
2023-06-30T08:13:45.466Z,2216.00
2023-06-30T08:14:45.504Z,2162.00
2023-06-30T08:15:48.725Z,2068.00
2023-06-30T08:16:45.499Z,2069.00
2023-06-30T08:17:56.535Z,2068.00
2023-06-30T08:18:51.309Z,2069.00
2023-06-30T08:19:49.717Z,2070.00
2023-06-30T08:20:45.492Z,2070.00
2023-06-30T08:21:45.453Z,2078.00
2023-06-30T08:22:47.030Z,2093.00
2023-06-30T08:23:45.409Z,2077.00
2023-06-30T08:24:45.382Z,1999.00
2023-06-30T08:25:45.539Z,1942.00
2023-06-30T08:26:45.364Z,1941.00
2023-06-30T08:27:45.387Z,1911.00
2023-06-30T08:28:45.358Z,1908.00
2023-06-30T08:29:45.355Z,1903.00
2023-06-30T08:30:45.372Z,1915.00
2023-06-30T08:31:45.328Z,1926.00
2023-06-30T08:32:45.357Z,1937.00
2023-06-30T08:33:45.359Z,1921.00
2023-06-30T08:34:45.392Z,1903.00
2023-06-30T08:35:45.621Z,1855.00
2023-06-30T08:36:45.477Z,1832.00
2023-06-30T08:37:45.591Z,1806.00
2023-06-30T08:38:45.601Z,1761.00
2023-06-30T08:39:45.662Z,1749.00
2023-06-30T08:40:45.737Z,1764.00
2023-06-30T08:41:45.765Z,1731.00
2023-06-30T08:42:45.832Z,1704.00
2023-06-30T08:43:45.877Z,1662.00
2023-06-30T08:44:45.969Z,1654.00
2023-06-30T08:45:46.179Z,1653.00
2023-06-30T08:46:46.108Z,1680.00
2023-06-30T08:47:46.218Z,1640.00
2023-06-30T08:48:46.151Z,1582.00
2023-06-30T08:49:46.223Z,1487.00
2023-06-30T08:50:46.267Z,1474.00
2023-06-30T08:51:46.341Z,1406.00
2023-06-30T08:52:46.382Z,1417.00
2023-06-30T08:53:46.430Z,1437.00
2023-06-30T08:54:46.507Z,1445.00
2023-06-30T08:55:46.789Z,1496.00
2023-06-30T08:56:46.607Z,1474.00
2023-06-30T08:57:46.635Z,1533.00
2023-06-30T08:58:46.654Z,1525.00
2023-06-30T08:59:46.718Z,1466.00
2023-06-30T09:00:46.762Z,1426.00
2023-06-30T09:01:47.334Z,1421.00
2023-06-30T09:02:46.928Z,1466.00
2023-06-30T09:03:46.970Z,1430.00
2023-06-30T09:04:46.960Z,1433.00
2023-06-30T09:05:47.296Z,1478.00
2023-06-30T09:06:46.989Z,1481.00
2023-06-30T09:07:47.096Z,1463.00
2023-06-30T09:08:47.080Z,1423.00
2023-06-30T09:09:47.139Z,1397.00
2023-06-30T09:10:47.170Z,1356.00
2023-06-30T09:11:47.231Z,1250.00
2023-06-30T09:12:47.316Z,1238.00
2023-06-30T09:13:47.349Z,1249.00
2023-06-30T09:14:48.115Z,1312.00
2023-06-30T09:15:47.643Z,1444.00
2023-06-30T09:16:47.561Z,1500.00
2023-06-30T09:17:47.700Z,1488.00
2023-06-30T09:18:47.604Z,1482.00
2023-06-30T09:19:47.694Z,1479.00
2023-06-30T09:20:47.746Z,1494.00
2023-06-30T09:21:47.784Z,1474.00
2023-06-30T09:22:51.696Z,1417.00
2023-06-30T09:23:48.826Z,1374.00
2023-06-30T09:24:47.793Z,1313.00
2023-06-30T09:25:48.079Z,1258.00
2023-06-30T09:26:47.785Z,1187.00
2023-06-30T09:27:47.785Z,1120.00
2023-06-30T09:28:47.846Z,1108.00
2023-06-30T09:29:47.753Z,1146.00
2023-06-30T09:30:47.858Z,1165.00
2023-06-30T09:31:47.781Z,1172.00
2023-06-30T09:32:47.814Z,1255.00
2023-06-30T09:33:47.852Z,1312.00
2023-06-30T09:34:47.914Z,1300.00
2023-06-30T09:35:48.793Z,1331.00
2023-06-30T09:36:48.008Z,1246.00
2023-06-30T09:37:48.098Z,1188.00
2023-06-30T09:38:48.157Z,1127.00
2023-06-30T09:39:48.207Z,1101.00
2023-06-30T09:40:48.334Z,1050.00
2023-06-30T09:41:48.320Z,1070.00
2023-06-30T09:42:48.504Z,1128.00
2023-06-30T09:43:48.449Z,1083.00
2023-06-30T09:44:48.485Z,1110.00
2023-06-30T09:45:49.163Z,1108.00
2023-06-30T09:46:48.562Z,1074.00
2023-06-30T09:47:48.673Z,1040.00
2023-06-30T09:48:48.676Z,1026.00
2023-06-30T09:49:48.802Z,1021.00
2023-06-30T09:50:48.814Z,1033.00
2023-06-30T09:51:48.847Z,1053.00
2023-06-30T09:52:48.903Z,1067.00
2023-06-30T09:53:48.922Z,1085.00
2023-06-30T09:54:49.003Z,1099.00
2023-06-30T09:55:49.524Z,1154.00
2023-06-30T09:56:49.092Z,1133.00
2023-06-30T09:57:49.186Z,1068.00
2023-06-30T09:58:49.635Z,1056.00
2023-06-30T09:59:49.513Z,1094.00
2023-06-30T10:00:49.314Z,1057.00
2023-06-30T10:01:49.402Z,1017.00
2023-06-30T10:02:49.503Z,968.00
2023-06-30T10:03:49.497Z,877.00
2023-06-30T10:04:49.524Z,813.00
2023-06-30T10:06:49.578Z,671.00
2023-06-30T10:07:49.603Z,633.00
2023-06-30T10:08:49.658Z,595.00
2023-06-30T10:09:49.613Z,572.00
2023-06-30T10:10:49.710Z,567.00
2023-06-30T10:11:49.687Z,565.00
2023-06-30T10:12:49.702Z,586.00
2023-06-30T10:13:49.701Z,623.00
2023-06-30T10:14:49.741Z,657.00
2023-06-30T10:15:50.061Z,742.00
2023-06-30T10:16:49.806Z,782.00
2023-06-30T10:17:49.859Z,790.00
2023-06-30T10:18:49.772Z,784.00
2023-06-30T10:19:49.792Z,809.00
2023-06-30T10:20:50.539Z,882.00
2023-06-30T10:21:49.848Z,946.00
2023-06-30T10:22:49.882Z,1038.00
2023-06-30T10:23:49.905Z,1057.00
2023-06-30T10:24:49.905Z,969.00
2023-06-30T10:25:50.579Z,962.00
2023-06-30T10:26:49.961Z,993.00
2023-06-30T10:27:49.989Z,985.00
2023-06-30T10:28:50.017Z,950.00
2023-06-30T10:29:50.021Z,940.00
2023-06-30T10:30:50.028Z,917.00
2023-06-30T10:31:50.031Z,923.00
2023-06-30T10:32:50.175Z,972.00
2023-06-30T10:33:50.189Z,944.00
2023-06-30T10:34:50.180Z,902.00
2023-06-30T10:35:50.244Z,894.00
2023-06-30T10:36:50.322Z,930.00
2023-06-30T10:37:50.339Z,966.00
2023-06-30T10:38:50.383Z,1080.00
2023-06-30T10:39:50.419Z,1318.00
2023-06-30T10:40:50.396Z,1403.00
2023-06-30T10:41:50.433Z,1486.00
2023-06-30T10:42:50.430Z,1552.00
2023-06-30T10:43:50.469Z,1654.00
2023-06-30T10:44:50.539Z,1707.00
2023-06-30T10:45:50.590Z,1770.00
2023-06-30T10:46:50.644Z,1798.00
2023-06-30T10:47:50.699Z,1839.00
2023-06-30T10:48:50.679Z,1854.00
2023-06-30T10:49:50.703Z,2092.00
2023-06-30T10:50:50.719Z,2042.00
2023-06-30T10:51:50.751Z,2163.00
2023-06-30T10:52:50.776Z,2197.00
2023-06-30T10:53:50.774Z,2121.00
2023-06-30T10:54:50.843Z,2163.00
2023-06-30T10:55:51.037Z,2218.00
2023-06-30T10:56:50.807Z,2228.00
2023-06-30T10:57:50.851Z,2268.00
2023-06-30T10:58:50.904Z,2269.00
2023-06-30T10:59:50.953Z,2289.00
2023-06-30T11:00:51.010Z,2312.00
2023-06-30T11:01:51.073Z,2317.00
2023-06-30T11:02:51.404Z,2364.00
2023-06-30T11:03:51.307Z,2387.00
2023-06-30T11:04:51.320Z,2402.00
2023-06-30T11:05:51.526Z,2418.00
2023-06-30T11:06:51.322Z,2417.00
2023-06-30T11:07:51.386Z,2420.00
2023-06-30T11:08:51.439Z,2424.00
2023-06-30T11:09:51.490Z,2454.00
2023-06-30T11:10:51.563Z,2479.00
2023-06-30T11:11:52.028Z,2460.00
2023-06-30T11:12:51.601Z,2478.00
2023-06-30T11:13:51.647Z,2465.00
2023-06-30T11:14:51.708Z,2482.00
2023-06-30T11:15:54.382Z,2458.00
2023-06-30T11:16:51.734Z,2493.00
2023-06-30T11:17:51.787Z,2455.00
2023-06-30T11:18:51.826Z,2468.00
2023-06-30T11:19:51.724Z,2478.00
2023-06-30T11:20:52.046Z,2446.00
2023-06-30T11:21:51.682Z,2435.00
2023-06-30T11:22:51.681Z,2449.00
2023-06-30T11:23:51.667Z,2453.00
2023-06-30T11:24:51.676Z,2423.00
2023-06-30T11:25:51.671Z,2409.00
2023-06-30T11:26:51.682Z,2418.00
2023-06-30T11:27:51.663Z,2394.00
2023-06-30T11:28:51.652Z,2367.00
2023-06-30T11:29:51.809Z,2357.00
2023-06-30T11:30:51.651Z,2398.00
2023-06-30T11:31:51.627Z,2392.00
2023-06-30T11:32:51.617Z,2393.00
2023-06-30T11:33:51.632Z,2393.00
2023-06-30T11:34:51.616Z,2435.00
2023-06-30T11:35:51.603Z,2439.00
2023-06-30T11:36:51.594Z,2476.00
2023-06-30T11:37:51.608Z,2534.00
2023-06-30T11:38:51.595Z,2563.00
2023-06-30T11:39:51.576Z,2552.00
2023-06-30T11:40:51.567Z,2552.00
2023-06-30T11:41:51.552Z,2551.00
2023-06-30T11:42:51.572Z,2553.00
2023-06-30T11:43:51.541Z,2555.00
2023-06-30T11:44:51.561Z,2529.00
2023-06-30T11:45:51.544Z,2511.00
2023-06-30T11:46:53.478Z,2535.00
2023-06-30T11:47:51.563Z,2499.00
2023-06-30T11:48:51.528Z,2488.00
2023-06-30T11:49:51.561Z,2473.00
2023-06-30T11:50:51.519Z,2487.00
2023-06-30T11:51:51.526Z,2444.00
2023-06-30T11:52:51.491Z,2474.00
2023-06-30T11:53:51.484Z,2458.00
2023-06-30T11:54:51.459Z,2455.00
2023-06-30T11:55:51.500Z,2447.00
2023-06-30T11:56:51.452Z,2460.00
2023-06-30T11:57:51.465Z,2446.00
2023-06-30T11:58:51.470Z,2430.00
2023-06-30T11:59:51.447Z,2421.00
2023-06-30T12:00:51.425Z,2409.00
2023-06-30T12:01:51.439Z,2422.00
2023-06-30T12:02:52.190Z,2441.00
2023-06-30T12:03:51.495Z,2476.00
2023-06-30T12:04:51.455Z,2417.00
2023-06-30T12:05:51.411Z,2401.00
2023-06-30T12:06:51.380Z,2403.00
2023-06-30T12:07:51.380Z,2377.00